createdAt,value
2019-04-04T00:02:26.657Z,99425.56
2019-04-04T00:04:58.363Z,99423.97
2019-04-04T00:07:29.699Z,99422.16
2019-04-04T00:10:02.072Z,99414.80
2019-04-04T00:12:33.424Z,99415.03
2019-04-04T00:15:03.772Z,99413.93
2019-04-04T00:17:34.331Z,99410.55
2019-04-04T00:20:05.471Z,99407.38
2019-04-04T00:22:37.050Z,99403.17
2019-04-04T00:25:09.793Z,99402.81
2019-04-04T00:27:39.619Z,99404.37
2019-04-04T00:30:11.226Z,99396.39
2019-04-04T00:32:42.006Z,99397.59
2019-04-04T00:35:13.609Z,99398.56
2019-04-04T00:37:44.530Z,99393.02
2019-04-04T00:40:15.671Z,99393.60
2019-04-04T00:42:47.862Z,99390.48
2019-04-04T00:45:18.663Z,99395.55
2019-04-04T00:47:49.618Z,99395.55
2019-04-04T00:50:20.083Z,99402.06
2019-04-04T00:52:50.563Z,99401.93
2019-04-04T00:55:21.071Z,99425.16
2019-04-04T00:57:51.931Z,99560.39
2019-04-04T01:00:23.936Z,99492.78
2019-04-04T01:02:55.258Z,99440.02
2019-04-04T01:05:27.208Z,99543.63
2019-04-04T01:07:58.030Z,99461.13
2019-04-04T01:10:28.455Z,99520.92
2019-04-04T01:12:59.188Z,99470.85
2019-04-04T01:15:31.105Z,99514.11
2019-04-04T01:18:01.887Z,99491.11
2019-04-04T01:20:32.245Z,99507.86
2019-04-04T01:23:02.801Z,99457.52
2019-04-04T01:25:33.660Z,99515.03
2019-04-04T01:28:04.108Z,99448.55
2019-04-04T01:30:35.217Z,99496.36
2019-04-04T01:33:06.039Z,99479.08
2019-04-04T01:35:37.107Z,99485.45
2019-04-04T01:38:07.358Z,99479.91
2019-04-04T01:40:37.925Z,99479.77
2019-04-04T01:43:10.318Z,99464.42
2019-04-04T01:45:43.740Z,99472.14
2019-04-04T01:48:13.141Z,99473.23
2019-04-04T01:50:43.490Z,99473.72
2019-04-04T01:53:13.970Z,99469.13
2019-04-04T01:55:44.430Z,99468.26
2019-04-04T01:58:16.718Z,99464.33
2019-04-04T02:00:47.090Z,99466.85
2019-04-04T02:03:18.682Z,99486.30
2019-04-04T02:05:50.122Z,99484.13
2019-04-04T02:08:20.446Z,99479.56
2019-04-04T02:10:51.180Z,99472.75
2019-04-04T02:13:21.614Z,99468.98
2019-04-04T02:15:51.857Z,99455.77
2019-04-04T02:18:23.651Z,99456.69
2019-04-04T02:20:57.539Z,99450.72
2019-04-04T02:23:27.506Z,99443.39
2019-04-04T02:25:58.125Z,99447.67
2019-04-04T02:28:29.652Z,99440.55
2019-04-04T02:31:01.631Z,99432.48
2019-04-04T02:33:33.242Z,99409.29
2019-04-04T02:36:03.939Z,99400.34
2019-04-04T02:38:34.604Z,99391.75
2019-04-04T02:41:05.025Z,99390.97
2019-04-04T02:43:35.799Z,99381.09
2019-04-04T02:46:11.051Z,99397.52
2019-04-04T02:48:40.171Z,99411.16
2019-04-04T02:51:10.751Z,99428.03
2019-04-04T02:53:41.633Z,99413.87
2019-04-04T02:56:12.740Z,99426.78
2019-04-04T02:58:46.503Z,99443.66
2019-04-04T03:01:17.035Z,99430.53
2019-04-04T03:03:50.362Z,99426.88
2019-04-04T03:06:23.893Z,99412.80
2019-04-04T03:08:52.808Z,99397.48
2019-04-04T03:11:24.043Z,99391.89
2019-04-04T03:13:54.703Z,99402.62
2019-04-04T03:16:24.973Z,99392.59
2019-04-04T03:19:00.025Z,99399.33
2019-04-04T03:21:31.564Z,99385.80
2019-04-04T03:24:05.947Z,99383.08
2019-04-04T03:26:34.688Z,99382.09
2019-04-04T03:29:07.105Z,99372.84
2019-04-04T03:31:39.012Z,99357.53
2019-04-04T03:34:12.446Z,99346.53
2019-04-04T03:36:42.459Z,99340.50
2019-04-04T03:39:13.687Z,99348.91
2019-04-04T03:41:44.721Z,99348.64
2019-04-04T03:44:19.595Z,99334.25
2019-04-04T03:46:48.018Z,99323.75
2019-04-04T03:49:23.363Z,99337.98
2019-04-04T03:51:50.950Z,99359.55
2019-04-04T03:54:24.625Z,99367.11
2019-04-04T03:56:55.154Z,99370.31
2019-04-04T03:59:26.123Z,99366.89
2019-04-04T04:01:56.552Z,99357.43
2019-04-04T04:04:28.122Z,99341.62
2019-04-04T04:06:59.217Z,99363.26
2019-04-04T04:09:29.561Z,99389.78
2019-04-04T04:12:00.266Z,99369.02
2019-04-04T04:14:31.029Z,99363.11
2019-04-04T04:17:01.662Z,99368.23
2019-04-04T04:19:32.622Z,99367.61
2019-04-04T04:22:03.380Z,99370.05
2019-04-04T04:24:34.145Z,99373.08
2019-04-04T04:27:04.489Z,99384.97
2019-04-04T04:29:34.794Z,99397.30
2019-04-04T04:32:05.701Z,99408.91
2019-04-04T04:34:36.364Z,99400.22
2019-04-04T04:37:07.033Z,99412.33
2019-04-04T04:39:41.208Z,99416.95
2019-04-04T04:42:09.938Z,99422.15
2019-04-04T04:44:40.170Z,99428.70
2019-04-04T04:47:10.735Z,99441.55
2019-04-04T04:49:41.434Z,99438.77
2019-04-04T04:52:15.136Z,99442.30
2019-04-04T04:54:45.076Z,99432.28
2019-04-04T04:57:28.737Z,99431.89
2019-04-04T04:59:52.858Z,99430.83
2019-04-04T05:02:22.372Z,99430.47
2019-04-04T05:04:54.505Z,99429.98
2019-04-04T05:07:24.815Z,99417.89
2019-04-04T05:09:55.079Z,99411.14
2019-04-04T05:12:27.106Z,99403.39
2019-04-04T05:15:02.204Z,99391.69
2019-04-04T05:17:33.005Z,99390.36
2019-04-04T05:20:04.795Z,99398.47
2019-04-04T05:22:35.730Z,99401.84
2019-04-04T05:25:08.537Z,99400.99
2019-04-04T05:27:38.608Z,99410.30
2019-04-04T05:30:09.519Z,99414.16
2019-04-04T05:32:40.249Z,99438.80
2019-04-04T05:35:10.716Z,99447.27
2019-04-04T05:37:41.144Z,99452.72
2019-04-04T05:40:11.873Z,99468.19
2019-04-04T05:42:43.005Z,99471.66
2019-04-04T05:45:14.334Z,99467.54
2019-04-04T05:47:45.624Z,99461.86
2019-04-04T05:50:16.651Z,99443.95
2019-04-04T05:52:47.256Z,99442.72
2019-04-04T05:55:18.181Z,99421.34
2019-04-04T05:57:50.948Z,99411.01
2019-04-04T06:00:22.092Z,99420.19
2019-04-04T06:02:52.899Z,99436.24
2019-04-04T06:05:23.147Z,99447.36
2019-04-04T06:07:53.538Z,99446.61
2019-04-04T06:10:24.213Z,99444.66
2019-04-04T06:12:56.333Z,99446.57
2019-04-04T06:15:27.831Z,99479.21
2019-04-04T06:17:58.552Z,99482.45
2019-04-04T06:20:28.939Z,99480.98
2019-04-04T06:23:00.011Z,99481.70
2019-04-04T06:25:34.193Z,99485.47
2019-04-04T06:28:03.354Z,99487.02
2019-04-04T06:30:43.547Z,99487.38
2019-04-04T06:33:11.528Z,99491.45
2019-04-04T06:35:42.803Z,99499.21
2019-04-04T06:38:13.518Z,99501.97
2019-04-04T06:40:43.853Z,99492.65
2019-04-04T06:43:15.826Z,99478.09
2019-04-04T06:45:46.727Z,99481.23
2019-04-04T06:48:18.599Z,99488.25
2019-04-04T06:50:49.440Z,99500.84
2019-04-04T06:53:21.858Z,99506.17
2019-04-04T06:55:52.263Z,99499.16
2019-04-04T06:58:22.959Z,99478.09
2019-04-04T07:00:53.778Z,99485.63
2019-04-04T07:03:27.910Z,99484.03
2019-04-04T07:05:57.484Z,99481.32
2019-04-04T07:08:27.710Z,99494.28
2019-04-04T07:11:02.770Z,99500.98
2019-04-04T07:13:41.648Z,99489.72
2019-04-04T07:16:07.709Z,99483.95
2019-04-04T07:18:35.951Z,99486.34
2019-04-04T07:21:07.058Z,99493.83
2019-04-04T07:23:37.289Z,99490.46
2019-04-04T07:26:09.641Z,99496.19
2019-04-04T07:28:40.968Z,99497.44
2019-04-04T07:31:11.794Z,99494.42
2019-04-04T07:33:42.869Z,99491.19
2019-04-04T07:36:13.947Z,99489.50
2019-04-04T07:38:44.241Z,99494.75
2019-04-04T07:41:15.074Z,99491.70
2019-04-04T07:43:46.048Z,99482.55
2019-04-04T07:46:17.227Z,99481.61
2019-04-04T07:48:53.235Z,99482.94
2019-04-04T07:51:24.581Z,99477.49
2019-04-04T07:53:57.653Z,99476.17
2019-04-04T07:56:28.043Z,99471.17
2019-04-04T07:58:59.547Z,99481.55
2019-04-04T08:01:29.944Z,99482.72
2019-04-04T08:04:01.698Z,99487.52
2019-04-04T08:06:32.827Z,99499.13
2019-04-04T08:09:05.543Z,99492.43
2019-04-04T08:11:38.910Z,99494.66
2019-04-04T08:14:09.380Z,99510.93
2019-04-04T08:16:39.923Z,99505.95
2019-04-04T08:19:11.842Z,99514.88
2019-04-04T08:21:42.986Z,99512.86
2019-04-04T08:24:15.305Z,99521.06
2019-04-04T08:26:46.299Z,99519.36
2019-04-04T08:29:18.732Z,99514.69
2019-04-04T08:31:50.107Z,99526.95
2019-04-04T08:34:21.651Z,99529.75
2019-04-04T08:36:59.091Z,99520.20
2019-04-04T08:39:29.384Z,99528.53
2019-04-04T08:41:59.817Z,99518.73
2019-04-04T08:44:30.686Z,99514.94
2019-04-04T08:47:01.302Z,99523.31
2019-04-04T08:49:31.653Z,99536.64
2019-04-04T08:52:16.121Z,99543.60
2019-04-04T08:54:36.516Z,99536.45
2019-04-04T08:57:07.160Z,99531.34
2019-04-04T08:59:38.740Z,99534.01
2019-04-04T09:02:14.483Z,99522.72
2019-04-04T09:04:45.272Z,99515.38
2019-04-04T09:07:15.651Z,99506.79
2019-04-04T09:09:46.589Z,99507.48
2019-04-04T09:12:18.479Z,99496.65
2019-04-04T09:14:49.507Z,99491.33
2019-04-04T09:17:20.035Z,99488.09
2019-04-04T09:19:50.741Z,99491.78
2019-04-04T09:22:24.136Z,99497.82
2019-04-04T09:24:56.847Z,99501.16
2019-04-04T09:27:29.812Z,99490.76
2019-04-04T09:30:00.997Z,99509.10
2019-04-04T09:32:32.658Z,99520.99
2019-04-04T09:35:03.955Z,99518.03
2019-04-04T09:37:34.740Z,99515.39
2019-04-04T09:40:09.294Z,99510.63
2019-04-04T09:42:39.661Z,99501.88
2019-04-04T09:45:10.533Z,99499.28
2019-04-04T09:47:41.206Z,99516.83
2019-04-04T09:50:12.106Z,99526.41
2019-04-04T09:52:42.510Z,99533.02
2019-04-04T09:55:13.337Z,99539.30
2019-04-04T09:57:43.791Z,99539.13
2019-04-04T10:00:14.594Z,99533.89
2019-04-04T10:02:46.053Z,99548.73
2019-04-04T10:05:16.793Z,99536.31
2019-04-04T10:07:47.261Z,99533.41
2019-04-04T10:10:17.961Z,99531.36
2019-04-04T10:12:48.914Z,99554.08
2019-04-04T10:15:19.718Z,99564.61
2019-04-04T10:17:50.782Z,99564.25
2019-04-04T10:20:20.973Z,99565.50
2019-04-04T10:22:52.125Z,99571.79
2019-04-04T10:25:22.506Z,99575.67
2019-04-04T10:27:53.672Z,99578.41
2019-04-04T10:30:24.148Z,99578.55
2019-04-04T10:32:54.483Z,99576.02
2019-04-04T10:35:26.163Z,99574.08
2019-04-04T10:37:57.544Z,99568.31
2019-04-04T10:40:27.967Z,99566.22
2019-04-04T10:42:58.762Z,99562.94
2019-04-04T10:45:29.691Z,99554.79
2019-04-04T10:48:01.187Z,99557.27
2019-04-04T10:50:31.498Z,99547.09
2019-04-04T10:53:01.729Z,99555.66
2019-04-04T10:55:33.347Z,99552.05
2019-04-04T10:58:04.935Z,99550.55
2019-04-04T11:00:35.945Z,99540.16
2019-04-04T11:03:06.493Z,99533.39
2019-04-04T11:05:37.112Z,99539.73
2019-04-04T11:08:07.952Z,99536.41
2019-04-04T11:10:38.736Z,99546.47
2019-04-04T11:13:09.150Z,99548.45
2019-04-04T11:15:40.027Z,99548.70
2019-04-04T11:18:11.122Z,99555.48
2019-04-04T11:20:48.610Z,99549.20
2019-04-04T11:23:19.599Z,99552.97
2019-04-04T11:25:49.826Z,99554.38
2019-04-04T11:28:20.716Z,99552.72
2019-04-04T11:30:51.597Z,99555.44
2019-04-04T11:33:23.210Z,99562.30
2019-04-04T11:35:53.503Z,99563.55
2019-04-04T11:38:24.663Z,99559.69
2019-04-04T11:40:55.544Z,99556.41
2019-04-04T11:43:26.708Z,99562.75
2019-04-04T11:45:57.963Z,99563.41
2019-04-04T11:48:28.202Z,99565.55
2019-04-04T11:50:59.564Z,99564.36
2019-04-04T11:53:34.027Z,99572.01
2019-04-04T11:56:04.707Z,99572.01
2019-04-04T11:58:34.949Z,99582.11
2019-04-04T12:01:12.297Z,99571.36
2019-04-04T12:03:44.551Z,99566.02
2019-04-04T12:06:19.790Z,99571.77
2019-04-04T12:08:50.971Z,99577.77
2019-04-04T12:11:22.827Z,99569.22
2019-04-04T12:13:54.543Z,99569.28
2019-04-04T12:16:24.969Z,99553.62
2019-04-04T12:18:56.436Z,99553.62
2019-04-04T12:21:27.203Z,99553.27
2019-04-04T12:23:57.656Z,99560.79
2019-04-04T12:26:31.459Z,99551.77
2019-04-04T12:29:01.824Z,99553.94
2019-04-04T12:31:34.197Z,99560.03
2019-04-04T12:34:04.833Z,99563.29
2019-04-04T12:36:37.305Z,99561.44
2019-04-04T12:39:10.367Z,99561.44
2019-04-04T12:41:44.379Z,99571.79
2019-04-04T12:44:14.821Z,99568.49
2019-04-04T12:46:46.063Z,99572.38
2019-04-04T12:49:16.837Z,99572.36
2019-04-04T12:51:47.124Z,99572.41
2019-04-04T12:54:17.568Z,99567.61
2019-04-04T12:56:48.959Z,99574.48
2019-04-04T12:59:19.555Z,99584.47
2019-04-04T13:01:50.425Z,99585.83
2019-04-04T13:04:30.972Z,99592.41
2019-04-04T13:06:54.276Z,99601.54
2019-04-04T13:09:24.532Z,99601.71
2019-04-04T13:11:58.906Z,99604.31
2019-04-04T13:14:30.377Z,99589.14
2019-04-04T13:17:00.768Z,99589.00
2019-04-04T13:19:31.535Z,99596.94
2019-04-04T13:22:02.209Z,99597.48
2019-04-04T13:24:33.066Z,99592.41
2019-04-04T13:27:03.974Z,99601.05
2019-04-04T13:29:39.120Z,99602.13
2019-04-04T13:32:10.368Z,99596.96
2019-04-04T13:34:41.279Z,99600.97
2019-04-04T13:37:13.020Z,99599.70
2019-04-04T13:39:43.619Z,99602.52
2019-04-04T13:42:14.600Z,99605.16
2019-04-04T13:44:48.382Z,99601.84
2019-04-04T13:47:19.790Z,99601.49
2019-04-04T13:49:51.004Z,99602.30
2019-04-04T13:52:21.605Z,99599.09
2019-04-04T13:54:55.678Z,99589.75
2019-04-04T13:57:26.175Z,99584.31
2019-04-04T13:59:57.003Z,99583.87
2019-04-04T14:02:32.318Z,99580.56
2019-04-04T14:05:13.969Z,99581.59
2019-04-04T14:07:43.924Z,99578.56
2019-04-04T14:10:17.498Z,99578.36
2019-04-04T14:12:47.574Z,99573.19
2019-04-04T14:15:18.007Z,99577.12
2019-04-04T14:17:48.714Z,99577.89
2019-04-04T14:20:18.922Z,99580.81
2019-04-04T14:22:51.106Z,99583.13
2019-04-04T14:25:21.536Z,99591.77
2019-04-04T14:27:52.185Z,99590.68
2019-04-04T14:30:22.823Z,99593.02
2019-04-04T14:32:53.089Z,99585.70
2019-04-04T14:35:23.404Z,99593.98
2019-04-04T14:37:54.649Z,99598.36
2019-04-04T14:40:25.860Z,99597.86
2019-04-04T14:42:56.878Z,99606.02
2019-04-04T14:45:30.155Z,99595.90
2019-04-04T14:48:00.854Z,99601.50
2019-04-04T14:50:31.730Z,99599.42
2019-04-04T14:53:02.299Z,99613.83
2019-04-04T14:55:33.490Z,99611.02
2019-04-04T14:58:04.383Z,99604.67
2019-04-04T15:00:34.959Z,99603.70
2019-04-04T15:03:05.877Z,99598.66
2019-04-04T15:05:36.378Z,99600.59
2019-04-04T15:08:08.226Z,99597.62
2019-04-04T15:10:39.204Z,99596.80
2019-04-04T15:13:10.199Z,99596.31
2019-04-04T15:16:02.315Z,99592.28
2019-04-04T15:18:34.091Z,99590.31
2019-04-04T15:21:04.608Z,99587.70
2019-04-04T15:23:35.456Z,99592.73
2019-04-04T15:26:06.257Z,99588.38
2019-04-04T15:28:37.220Z,99585.52
2019-04-04T15:31:08.428Z,99586.11
2019-04-04T15:33:39.097Z,99582.70
2019-04-04T15:36:09.634Z,99584.26
2019-04-04T15:38:41.565Z,99589.41
2019-04-04T15:41:12.651Z,99590.59
2019-04-04T15:43:43.423Z,99592.07
2019-04-04T15:46:14.760Z,99602.93
2019-04-04T15:48:47.192Z,99601.23
2019-04-04T15:51:17.766Z,99606.56
2019-04-04T15:53:48.452Z,99606.56
2019-04-04T15:56:18.988Z,99598.63
2019-04-04T15:58:49.208Z,99601.38
2019-04-04T16:01:20.688Z,99603.97
2019-04-04T16:03:52.422Z,99605.74
2019-04-04T16:06:22.927Z,99616.75
2019-04-04T16:08:53.317Z,99604.86
2019-04-04T16:11:23.668Z,99604.86
2019-04-04T16:13:53.934Z,99606.95
2019-04-04T16:16:25.052Z,99606.47
2019-04-04T16:19:00.497Z,99614.44
2019-04-04T16:21:33.174Z,99610.84
2019-04-04T16:24:04.318Z,99614.50
2019-04-04T16:26:35.658Z,99614.50
2019-04-04T16:29:05.935Z,99608.50
2019-04-04T16:31:36.256Z,99595.36
2019-04-04T16:34:06.786Z,99597.70
2019-04-04T16:36:39.559Z,99597.70
2019-04-04T16:39:11.739Z,99597.11
2019-04-04T16:41:42.323Z,99598.95
2019-04-04T16:44:13.670Z,99598.95
2019-04-04T16:46:44.143Z,99593.81
2019-04-04T16:49:15.776Z,99602.06
2019-04-04T16:51:47.549Z,99602.63
2019-04-04T16:54:24.329Z,99591.07
2019-04-04T16:56:55.903Z,99590.31
2019-04-04T16:59:26.469Z,99592.77
2019-04-04T17:01:56.783Z,99605.52
2019-04-04T17:04:27.326Z,99605.52
2019-04-04T17:06:57.774Z,99610.09
2019-04-04T17:09:29.749Z,99621.80
2019-04-04T17:12:14.184Z,99621.80
2019-04-04T17:14:35.247Z,99629.09
2019-04-04T17:17:05.631Z,99623.62
2019-04-04T17:19:37.300Z,99628.09
2019-04-04T17:22:08.149Z,99637.59
2019-04-04T17:24:39.428Z,99638.70
2019-04-04T17:27:10.689Z,99636.86
2019-04-04T17:29:40.921Z,99635.16
2019-04-04T17:32:12.626Z,99645.81
2019-04-04T17:34:44.325Z,99646.27
2019-04-04T17:37:15.508Z,99648.52
2019-04-04T17:39:46.372Z,99652.70
2019-04-04T17:42:29.610Z,99652.24
2019-04-04T17:44:52.917Z,99655.47
2019-04-04T17:47:23.884Z,99664.70
2019-04-04T17:49:54.714Z,99662.66
2019-04-04T17:52:25.448Z,99661.44
2019-04-04T17:54:57.920Z,99668.44
2019-04-04T17:57:28.295Z,99665.91
2019-04-04T17:59:58.966Z,99661.53
2019-04-04T18:02:31.173Z,99660.70
2019-04-04T18:05:01.594Z,99663.83
2019-04-04T18:07:32.087Z,99669.66
2019-04-04T18:10:03.954Z,99684.12
2019-04-04T18:12:40.521Z,99689.61
2019-04-04T18:15:08.612Z,99697.59
2019-04-04T18:17:39.647Z,99712.00
2019-04-04T18:20:15.755Z,99719.47
2019-04-04T18:22:46.324Z,99723.09
2019-04-04T18:25:19.859Z,99732.17
2019-04-04T18:27:50.252Z,99738.73
2019-04-04T18:30:21.077Z,99740.96
2019-04-04T18:32:51.617Z,99744.61
2019-04-04T18:35:23.177Z,99747.84
2019-04-04T18:37:54.126Z,99754.17
2019-04-04T18:40:24.878Z,99763.57
2019-04-04T18:42:55.753Z,99766.95
2019-04-04T18:45:28.163Z,99771.28
2019-04-04T18:47:58.719Z,99770.55
2019-04-04T18:50:30.217Z,99780.98
2019-04-04T18:53:01.126Z,99772.94
2019-04-04T18:55:32.185Z,99770.55
2019-04-04T18:58:06.096Z,99765.40
2019-04-04T19:00:37.071Z,99772.27
2019-04-04T19:03:08.025Z,99788.28
2019-04-04T19:05:39.044Z,99784.50
2019-04-04T19:08:09.951Z,99785.04
2019-04-04T19:10:40.388Z,99787.46
2019-04-04T19:13:10.767Z,99788.93
2019-04-04T19:15:41.803Z,99791.64
2019-04-04T19:18:13.453Z,99787.02
2019-04-04T19:20:44.617Z,99794.08
2019-04-04T19:23:15.740Z,99791.58
2019-04-04T19:25:46.462Z,99790.38
2019-04-04T19:28:22.690Z,99796.58
2019-04-04T19:30:53.665Z,99797.09
2019-04-04T19:33:24.170Z,99800.34
2019-04-04T19:35:55.010Z,99800.22
2019-04-04T19:38:25.597Z,99793.66
2019-04-04T19:40:56.719Z,99811.21
2019-04-04T19:43:27.832Z,99806.50
2019-04-04T19:45:58.499Z,99811.67
2019-04-04T19:48:31.401Z,99811.57
2019-04-04T19:51:08.531Z,99807.47
2019-04-04T19:53:42.161Z,99807.34
2019-04-04T19:56:14.497Z,99810.87
2019-04-04T19:58:45.682Z,99816.69
2019-04-04T20:01:18.764Z,99825.53
2019-04-04T20:03:51.071Z,99815.61
2019-04-04T20:06:22.068Z,99808.84
2019-04-04T20:08:53.768Z,99808.25
2019-04-04T20:11:27.673Z,99817.54
2019-04-04T20:13:59.631Z,99815.12
2019-04-04T20:16:30.242Z,99813.92
2019-04-04T20:19:03.984Z,99815.86
2019-04-04T20:21:33.069Z,99810.78
2019-04-04T20:24:03.614Z,99809.20
2019-04-04T20:26:34.218Z,99817.43
2019-04-04T20:29:04.651Z,99818.66
2019-04-04T20:31:35.772Z,99812.83
2019-04-04T20:34:07.218Z,99806.78
2019-04-04T20:36:37.951Z,99808.84
2019-04-04T20:39:09.046Z,99795.41
2019-04-04T20:41:39.420Z,99798.19
2019-04-04T20:44:12.636Z,99802.05
2019-04-04T20:46:43.198Z,99808.00
2019-04-04T20:49:14.565Z,99812.83
2019-04-04T20:51:46.737Z,99817.08
2019-04-04T20:54:17.465Z,99813.56
2019-04-04T20:56:51.923Z,99817.06
2019-04-04T20:59:23.330Z,99816.55
2019-04-04T21:01:56.530Z,99818.61
2019-04-04T21:04:26.149Z,99822.58
2019-04-04T21:07:01.430Z,99814.23
2019-04-04T21:09:33.503Z,99811.57
2019-04-04T21:12:06.120Z,99810.34
2019-04-04T21:14:37.887Z,99811.01
2019-04-04T21:17:08.625Z,99802.79
2019-04-04T21:19:40.328Z,99803.20
2019-04-04T21:22:11.869Z,99818.55
2019-04-04T21:24:47.073Z,99822.66
2019-04-04T21:27:18.933Z,99827.45
2019-04-04T21:29:50.398Z,99828.57
2019-04-04T21:32:21.926Z,99826.16
2019-04-04T21:34:52.800Z,99816.48
2019-04-04T21:37:23.820Z,99821.31
2019-04-04T21:40:07.232Z,99818.22
2019-04-04T21:42:38.788Z,99817.70
2019-04-04T21:45:15.069Z,99818.16
2019-04-04T21:47:44.969Z,99822.62
2019-04-04T21:50:15.636Z,99828.18
2019-04-04T21:52:46.438Z,99833.00
2019-04-04T21:55:17.193Z,99824.02
2019-04-04T21:57:48.763Z,99829.70
2019-04-04T22:00:20.878Z,99824.98
2019-04-04T22:02:51.443Z,99822.20
2019-04-04T22:05:22.407Z,99818.42
2019-04-04T22:07:52.913Z,99818.30
2019-04-04T22:10:24.247Z,99815.88
2019-04-04T22:12:55.449Z,99820.45
2019-04-04T22:15:27.607Z,99820.45
2019-04-04T22:18:00.340Z,99817.33
2019-04-04T22:20:30.684Z,99815.40
2019-04-04T22:23:02.209Z,99817.09
2019-04-04T22:25:36.734Z,99812.73
2019-04-04T22:28:11.249Z,99817.37
2019-04-04T22:30:42.065Z,99823.17
2019-04-04T22:33:12.305Z,99820.88
2019-04-04T22:35:43.041Z,99819.18
2019-04-04T22:38:13.806Z,99821.00
2019-04-04T22:40:44.127Z,99816.20
2019-04-04T22:43:14.507Z,99812.59
2019-04-04T22:45:44.931Z,99812.45
2019-04-04T22:48:16.220Z,99813.84
2019-04-04T22:50:46.611Z,99801.09
2019-04-04T22:53:16.886Z,99800.25
2019-04-04T22:55:47.611Z,99807.29
2019-04-04T22:58:27.648Z,99809.83
2019-04-04T23:00:50.143Z,99810.08
2019-04-04T23:03:21.402Z,99804.03
2019-04-04T23:05:51.806Z,99804.72
2019-04-04T23:08:22.667Z,99815.41
2019-04-04T23:10:53.364Z,99816.63
2019-04-04T23:13:23.659Z,99814.52
2019-04-04T23:15:54.453Z,99806.41
2019-04-04T23:18:26.052Z,99816.74
2019-04-04T23:20:56.758Z,99822.66
2019-04-04T23:23:27.554Z,99822.22
2019-04-04T23:26:00.030Z,99815.89
2019-04-04T23:28:31.010Z,99823.02
2019-04-04T23:31:01.289Z,99819.28
2019-04-04T23:33:31.913Z,99823.47
2019-04-04T23:36:02.506Z,99828.55
2019-04-04T23:38:32.815Z,99840.02
2019-04-04T23:41:03.956Z,99827.09
2019-04-04T23:43:34.189Z,99833.86
2019-04-04T23:46:10.908Z,99829.67
2019-04-04T23:48:41.537Z,99833.25
2019-04-04T23:51:11.746Z,99831.52
2019-04-04T23:53:42.303Z,99833.54
2019-04-04T23:56:12.713Z,99848.36
2019-04-04T23:58:43.489Z,99858.56
